createdAt,value
2023-01-09T00:00:01.809Z,696.74
2023-01-09T00:00:11.852Z,696.71
2023-01-09T00:00:21.859Z,696.76
2023-01-09T00:00:31.833Z,696.71
2023-01-09T00:00:41.915Z,696.81
2023-01-09T00:00:51.819Z,696.73
2023-01-09T00:01:01.805Z,696.69
2023-01-09T00:01:11.810Z,696.78
2023-01-09T00:01:21.815Z,696.78
2023-01-09T00:01:31.807Z,696.77
2023-01-09T00:01:41.818Z,696.81
2023-01-09T00:01:51.794Z,696.81
2023-01-09T00:02:01.846Z,696.74
2023-01-09T00:02:11.822Z,697.00
2023-01-09T00:02:21.903Z,696.89
2023-01-09T00:02:31.858Z,696.96
2023-01-09T00:02:41.842Z,697.08
2023-01-09T00:02:51.818Z,697.20
2023-01-09T00:03:01.814Z,697.26
2023-01-09T00:03:11.821Z,697.45
2023-01-09T00:03:21.826Z,697.49
2023-01-09T00:03:31.855Z,697.62
2023-01-09T00:03:41.862Z,697.69
2023-01-09T00:03:51.870Z,697.63
2023-01-09T00:04:01.877Z,697.82
2023-01-09T00:04:11.859Z,697.83
2023-01-09T00:04:21.842Z,697.97
2023-01-09T00:04:31.826Z,698.06
2023-01-09T00:04:41.828Z,698.17
2023-01-09T00:04:51.830Z,698.38
2023-01-09T00:05:01.833Z,698.45
2023-01-09T00:05:11.838Z,698.45
2023-01-09T00:05:21.839Z,698.41
2023-01-09T00:05:31.834Z,698.32
2023-01-09T00:05:41.848Z,698.30
2023-01-09T00:05:51.838Z,698.28
2023-01-09T00:06:01.832Z,698.26
2023-01-09T00:06:11.836Z,698.35
2023-01-09T00:06:21.836Z,698.38
2023-01-09T00:06:31.837Z,698.27
2023-01-09T00:06:41.840Z,698.18
2023-01-09T00:06:51.842Z,698.06
2023-01-09T00:07:01.844Z,698.08
2023-01-09T00:07:11.839Z,697.97
2023-01-09T00:07:21.847Z,697.87
2023-01-09T00:07:31.844Z,697.91
2023-01-09T00:07:41.846Z,698.01
2023-01-09T00:07:51.851Z,697.96
2023-01-09T00:08:01.857Z,697.86
2023-01-09T00:08:11.846Z,697.90
2023-01-09T00:08:21.861Z,697.91
2023-01-09T00:08:31.850Z,697.92
2023-01-09T00:08:41.867Z,697.98
2023-01-09T00:08:51.849Z,697.93
2023-01-09T00:09:01.852Z,698.04
2023-01-09T00:09:11.855Z,698.09
2023-01-09T00:09:21.857Z,698.05
2023-01-09T00:09:31.855Z,698.08
2023-01-09T00:09:41.863Z,698.05
2023-01-09T00:09:51.860Z,698.03
2023-01-09T00:10:01.854Z,698.19
2023-01-09T00:10:11.860Z,698.12
2023-01-09T00:10:21.859Z,697.94
2023-01-09T00:10:31.867Z,698.04
2023-01-09T00:10:41.875Z,697.99
2023-01-09T00:10:51.863Z,698.17
2023-01-09T00:11:01.862Z,698.07
2023-01-09T00:11:11.884Z,698.09
2023-01-09T00:11:21.868Z,698.21
2023-01-09T00:11:31.862Z,698.06
2023-01-09T00:11:41.874Z,697.98
2023-01-09T00:11:51.864Z,698.04
2023-01-09T00:12:01.870Z,698.04
2023-01-09T00:12:11.870Z,698.02
2023-01-09T00:12:21.868Z,697.99
2023-01-09T00:12:31.876Z,698.02
2023-01-09T00:12:41.858Z,697.99
2023-01-09T00:12:51.875Z,698.01
2023-01-09T00:13:01.884Z,698.04
2023-01-09T00:13:11.882Z,697.99
2023-01-09T00:13:21.874Z,697.98
2023-01-09T00:13:31.886Z,698.00
2023-01-09T00:13:41.875Z,697.85
2023-01-09T00:13:51.879Z,697.94
2023-01-09T00:14:01.883Z,698.07
2023-01-09T00:14:11.895Z,697.98
2023-01-09T00:14:21.877Z,697.91
2023-01-09T00:14:31.878Z,697.93
2023-01-09T00:14:41.862Z,698.02
2023-01-09T00:14:51.881Z,698.07
2023-01-09T00:15:01.889Z,698.15
2023-01-09T00:15:11.903Z,698.13
2023-01-09T00:15:21.893Z,698.08
2023-01-09T00:15:31.885Z,698.11
2023-01-09T00:15:41.915Z,698.17
2023-01-09T00:15:51.883Z,698.30
2023-01-09T00:16:01.885Z,698.31
2023-01-09T00:16:11.884Z,698.24
2023-01-09T00:16:21.904Z,698.37
2023-01-09T00:16:31.955Z,698.51
2023-01-09T00:16:41.926Z,698.64
2023-01-09T00:16:52.035Z,698.61
2023-01-09T00:17:01.911Z,698.60
2023-01-09T00:17:11.903Z,698.60
2023-01-09T00:17:21.892Z,698.67
2023-01-09T00:17:31.899Z,698.59
2023-01-09T00:17:41.902Z,698.67
2023-01-09T00:17:51.883Z,698.64
2023-01-09T00:18:01.895Z,698.61
2023-01-09T00:18:11.920Z,698.69
2023-01-09T00:18:21.901Z,698.70
2023-01-09T00:18:31.898Z,698.74
2023-01-09T00:18:41.897Z,698.86
2023-01-09T00:18:51.902Z,698.86
2023-01-09T00:19:01.897Z,698.95
2023-01-09T00:19:11.907Z,699.05
2023-01-09T00:19:21.900Z,699.09
2023-01-09T00:19:31.918Z,699.16
2023-01-09T00:19:41.903Z,699.10
2023-01-09T00:19:51.912Z,699.14
2023-01-09T00:20:01.910Z,699.02
2023-01-09T00:20:11.916Z,699.15
2023-01-09T00:20:21.913Z,699.24
2023-01-09T00:20:31.912Z,699.15
2023-01-09T00:20:41.921Z,699.07
2023-01-09T00:20:51.913Z,699.13
2023-01-09T00:21:01.917Z,699.16
2023-01-09T00:21:11.921Z,699.23
2023-01-09T00:21:21.917Z,699.15
2023-01-09T00:21:31.920Z,699.27
2023-01-09T00:21:41.922Z,699.30
2023-01-09T00:21:51.931Z,699.22
2023-01-09T00:22:01.924Z,699.31
2023-01-09T00:22:11.922Z,699.29
2023-01-09T00:22:21.922Z,699.27
2023-01-09T00:22:31.923Z,699.26
2023-01-09T00:22:41.939Z,699.25
2023-01-09T00:22:51.934Z,699.29
2023-01-09T00:23:01.929Z,699.20
2023-01-09T00:23:11.932Z,699.28
2023-01-09T00:23:21.935Z,699.42
2023-01-09T00:23:31.955Z,699.50
2023-01-09T00:23:41.948Z,699.54
2023-01-09T00:23:51.927Z,699.44
2023-01-09T00:24:01.939Z,699.52
2023-01-09T00:24:11.961Z,699.52
2023-01-09T00:24:21.938Z,699.60
2023-01-09T00:24:31.935Z,699.72
2023-01-09T00:24:41.937Z,699.69
2023-01-09T00:24:51.937Z,699.72
2023-01-09T00:25:01.937Z,699.70
2023-01-09T00:25:11.936Z,699.63
2023-01-09T00:25:21.945Z,699.51
2023-01-09T00:25:31.937Z,699.56
2023-01-09T00:25:42.648Z,699.60
2023-01-09T00:25:51.942Z,699.63
2023-01-09T00:26:01.938Z,699.68
2023-01-09T00:26:11.944Z,699.77
2023-01-09T00:26:21.940Z,699.73
2023-01-09T00:26:31.941Z,699.53
2023-01-09T00:26:41.945Z,699.71
2023-01-09T00:26:51.959Z,699.61
2023-01-09T00:27:01.944Z,699.62
2023-01-09T00:27:11.944Z,699.59
2023-01-09T00:27:21.955Z,699.65
2023-01-09T00:27:31.949Z,699.62
2023-01-09T00:27:41.945Z,699.54
2023-01-09T00:27:51.963Z,699.55
2023-01-09T00:28:01.952Z,699.73
2023-01-09T00:28:11.951Z,699.79
2023-01-09T00:28:21.956Z,699.68
2023-01-09T00:28:31.950Z,699.81
2023-01-09T00:28:41.951Z,699.91
2023-01-09T00:28:51.951Z,699.88
2023-01-09T00:29:01.975Z,699.94
2023-01-09T00:29:11.992Z,699.89
2023-01-09T00:29:21.955Z,700.12
2023-01-09T00:29:31.956Z,700.13
2023-01-09T00:29:41.957Z,700.18
2023-01-09T00:29:51.967Z,700.17
2023-01-09T00:30:01.981Z,700.15
2023-01-09T00:30:11.967Z,700.13
2023-01-09T00:30:21.961Z,700.33
2023-01-09T00:30:32.003Z,700.34
2023-01-09T00:30:41.983Z,700.27
2023-01-09T00:30:51.989Z,700.34
2023-01-09T00:31:01.984Z,700.30
2023-01-09T00:31:11.967Z,700.37
2023-01-09T00:31:21.964Z,700.26
2023-01-09T00:31:31.970Z,700.13
2023-01-09T00:31:41.969Z,700.13
2023-01-09T00:31:51.997Z,700.09
2023-01-09T00:32:01.974Z,700.15
2023-01-09T00:32:11.969Z,700.13
2023-01-09T00:32:21.969Z,700.16
2023-01-09T00:32:31.971Z,700.14
2023-01-09T00:32:41.978Z,700.15
2023-01-09T00:32:51.979Z,700.05
2023-01-09T00:33:01.972Z,700.12
2023-01-09T00:33:11.973Z,700.16
2023-01-09T00:33:21.987Z,700.28
2023-01-09T00:33:31.978Z,700.32
2023-01-09T00:33:41.980Z,700.31
2023-01-09T00:33:51.979Z,700.41
2023-01-09T00:34:01.979Z,700.47
2023-01-09T00:34:11.985Z,700.42
2023-01-09T00:34:21.990Z,700.36
2023-01-09T00:34:31.988Z,700.50
2023-01-09T00:34:41.986Z,700.64
2023-01-09T00:34:51.999Z,700.68
2023-01-09T00:35:01.987Z,700.62
2023-01-09T00:35:11.989Z,700.62
2023-01-09T00:35:21.992Z,700.72
2023-01-09T00:35:31.987Z,700.79
2023-01-09T00:35:41.996Z,700.80
2023-01-09T00:35:51.991Z,700.76
2023-01-09T00:36:02.006Z,700.77
2023-01-09T00:36:11.997Z,700.85
2023-01-09T00:36:22.002Z,700.88
2023-01-09T00:36:31.999Z,700.82
2023-01-09T00:36:41.995Z,700.82
2023-01-09T00:36:51.995Z,700.89
2023-01-09T00:37:02.069Z,700.91
2023-01-09T00:37:12.045Z,700.87
2023-01-09T00:37:22.000Z,701.00
2023-01-09T00:37:32.007Z,701.03
2023-01-09T00:37:42.013Z,701.09
2023-01-09T00:37:52.008Z,700.85
2023-01-09T00:38:02.002Z,700.98
2023-01-09T00:38:12.001Z,700.96
2023-01-09T00:38:22.006Z,701.00
2023-01-09T00:38:32.002Z,701.03
2023-01-09T00:38:42.005Z,701.09
2023-01-09T00:38:52.009Z,701.13
2023-01-09T00:39:02.006Z,701.15
2023-01-09T00:39:12.004Z,701.22
2023-01-09T00:39:22.009Z,701.47
2023-01-09T00:39:32.007Z,701.30
2023-01-09T00:39:42.008Z,701.32
2023-01-09T00:39:52.010Z,701.34
2023-01-09T00:40:02.051Z,701.36
2023-01-09T00:40:12.011Z,701.48
2023-01-09T00:40:22.013Z,701.29
2023-01-09T00:40:32.011Z,701.33
2023-01-09T00:40:42.012Z,701.40
2023-01-09T00:40:52.013Z,701.38
2023-01-09T00:41:02.014Z,701.34
2023-01-09T00:41:12.019Z,701.30
2023-01-09T00:41:22.020Z,701.37
2023-01-09T00:41:32.021Z,701.38
2023-01-09T00:41:42.024Z,701.43
2023-01-09T00:41:52.017Z,701.42
2023-01-09T00:42:02.035Z,701.41
2023-01-09T00:42:12.004Z,701.37
2023-01-09T00:42:22.037Z,701.39
2023-01-09T00:42:32.032Z,701.47
2023-01-09T00:42:42.027Z,701.46
2023-01-09T00:42:52.025Z,701.51
2023-01-09T00:43:02.030Z,701.50
2023-01-09T00:43:12.029Z,701.62
2023-01-09T00:43:22.035Z,701.73
2023-01-09T00:43:32.031Z,701.81
2023-01-09T00:43:42.043Z,701.73
2023-01-09T00:43:52.030Z,701.68
2023-01-09T00:44:02.041Z,701.74
2023-01-09T00:44:12.045Z,701.86
2023-01-09T00:44:22.041Z,701.94
2023-01-09T00:44:32.057Z,701.97
2023-01-09T00:44:42.039Z,702.09
2023-01-09T00:44:52.048Z,702.13
2023-01-09T00:45:02.043Z,702.11
2023-01-09T00:45:12.045Z,702.16
2023-01-09T00:45:22.040Z,702.11
2023-01-09T00:45:32.043Z,702.08
2023-01-09T00:45:42.062Z,702.08
2023-01-09T00:45:52.152Z,702.21
2023-01-09T00:46:02.083Z,702.16
2023-01-09T00:46:12.155Z,702.15
2023-01-09T00:46:22.125Z,702.23
2023-01-09T00:46:32.057Z,702.32
2023-01-09T00:46:42.055Z,702.22
2023-01-09T00:46:52.057Z,702.09
2023-01-09T00:47:02.057Z,702.14
2023-01-09T00:47:12.055Z,702.36
2023-01-09T00:47:22.056Z,702.33
2023-01-09T00:47:32.053Z,702.40
2023-01-09T00:47:42.056Z,702.56
2023-01-09T00:47:52.054Z,702.51
2023-01-09T00:48:02.061Z,702.46
2023-01-09T00:48:12.059Z,702.63
2023-01-09T00:48:22.056Z,702.63
2023-01-09T00:48:32.056Z,702.65
2023-01-09T00:48:42.057Z,702.70
2023-01-09T00:48:52.059Z,702.79
2023-01-09T00:49:02.071Z,702.83
2023-01-09T00:49:12.060Z,702.71
2023-01-09T00:49:22.061Z,702.53
2023-01-09T00:49:32.064Z,702.59
2023-01-09T00:49:42.060Z,702.63
2023-01-09T00:49:52.063Z,702.57
2023-01-09T00:50:02.061Z,702.60
2023-01-09T00:50:12.069Z,702.62
2023-01-09T00:50:22.074Z,702.67
2023-01-09T00:50:32.080Z,702.79
2023-01-09T00:50:42.067Z,702.70
2023-01-09T00:50:52.077Z,702.67
2023-01-09T00:51:02.071Z,702.78
2023-01-09T00:51:12.076Z,702.80
2023-01-09T00:51:22.088Z,702.87
2023-01-09T00:51:32.073Z,702.80
2023-01-09T00:51:42.108Z,702.68
2023-01-09T00:51:52.072Z,702.76
2023-01-09T00:52:02.076Z,702.86
2023-01-09T00:52:12.074Z,702.88
2023-01-09T00:52:22.076Z,703.00
2023-01-09T00:52:32.084Z,702.97
2023-01-09T00:52:42.085Z,702.83
2023-01-09T00:52:52.090Z,702.96
2023-01-09T00:53:02.084Z,703.09
2023-01-09T00:53:12.089Z,703.03
2023-01-09T00:53:22.088Z,703.00
2023-01-09T00:53:32.084Z,703.07
2023-01-09T00:53:42.085Z,703.22
2023-01-09T00:53:52.085Z,703.16
2023-01-09T00:54:02.084Z,703.03
2023-01-09T00:54:12.082Z,703.18
2023-01-09T00:54:22.088Z,703.08
2023-01-09T00:54:32.087Z,703.07
2023-01-09T00:54:42.088Z,703.11
2023-01-09T00:54:52.092Z,703.23
2023-01-09T00:55:02.092Z,703.12
2023-01-09T00:55:12.095Z,703.05
2023-01-09T00:55:22.093Z,702.93
2023-01-09T00:55:32.095Z,703.02
2023-01-09T00:55:42.100Z,703.01
2023-01-09T00:55:52.100Z,703.12
2023-01-09T00:56:02.111Z,702.96
2023-01-09T00:56:12.100Z,703.01
2023-01-09T00:56:22.100Z,703.01
2023-01-09T00:56:32.096Z,702.95
2023-01-09T00:56:42.101Z,702.89
2023-01-09T00:56:52.100Z,702.92
2023-01-09T00:57:02.102Z,703.03
2023-01-09T00:57:12.102Z,703.05
2023-01-09T00:57:22.088Z,702.92
2023-01-09T00:57:32.105Z,702.91
2023-01-09T00:57:42.107Z,702.95
2023-01-09T00:57:52.112Z,702.85
2023-01-09T00:58:02.111Z,702.82
2023-01-09T00:58:12.115Z,702.75
2023-01-09T00:58:22.114Z,702.79
2023-01-09T00:58:32.112Z,702.92
2023-01-09T00:58:42.131Z,702.83
2023-01-09T00:58:52.126Z,702.61
2023-01-09T00:59:02.119Z,702.69
2023-01-09T00:59:12.113Z,702.73
2023-01-09T00:59:22.130Z,702.64
2023-01-09T00:59:32.116Z,702.62
2023-01-09T00:59:42.137Z,702.76
2023-01-09T00:59:52.117Z,702.80
2023-01-09T01:00:02.123Z,702.72
2023-01-09T01:00:12.124Z,702.70
2023-01-09T01:00:22.123Z,702.58
2023-01-09T01:00:32.103Z,702.64
2023-01-09T01:00:42.121Z,702.69
2023-01-09T01:00:52.212Z,702.43
2023-01-09T01:01:02.251Z,702.57
2023-01-09T01:01:12.306Z,702.49
2023-01-09T01:01:22.241Z,702.56
2023-01-09T01:01:32.257Z,702.59
2023-01-09T01:01:42.277Z,702.51
2023-01-09T01:01:52.223Z,702.46
2023-01-09T01:02:02.385Z,702.41
2023-01-09T01:02:12.319Z,702.29
2023-01-09T01:02:22.305Z,702.32
2023-01-09T01:02:32.289Z,702.32
2023-01-09T01:02:42.195Z,702.25
2023-01-09T01:02:52.172Z,702.21
2023-01-09T01:03:02.157Z,702.37
2023-01-09T01:03:12.141Z,702.30
2023-01-09T01:03:22.138Z,702.30
2023-01-09T01:03:32.162Z,702.34
2023-01-09T01:03:42.136Z,702.32
2023-01-09T01:03:52.139Z,702.44
2023-01-09T01:04:02.168Z,702.55
2023-01-09T01:04:12.143Z,702.50
2023-01-09T01:04:22.145Z,702.54
2023-01-09T01:04:32.166Z,702.57
2023-01-09T01:04:42.157Z,702.63
2023-01-09T01:04:52.147Z,702.58
2023-01-09T01:05:02.150Z,702.69
2023-01-09T01:05:12.155Z,702.62
2023-01-09T01:05:22.147Z,702.55
2023-01-09T01:05:32.149Z,702.48
2023-01-09T01:05:42.152Z,702.44
2023-01-09T01:05:52.161Z,702.40
2023-01-09T01:06:02.165Z,702.41
2023-01-09T01:06:12.155Z,702.38
2023-01-09T01:06:22.155Z,702.41
2023-01-09T01:06:32.156Z,702.38
2023-01-09T01:06:42.155Z,702.44
2023-01-09T01:06:52.170Z,702.40
2023-01-09T01:07:02.269Z,702.19
2023-01-09T01:07:12.164Z,702.30
2023-01-09T01:07:22.157Z,702.34
2023-01-09T01:07:32.161Z,702.40
2023-01-09T01:07:42.162Z,702.36
2023-01-09T01:07:52.164Z,702.16
2023-01-09T01:08:02.174Z,702.18
2023-01-09T01:08:12.163Z,702.15
2023-01-09T01:08:22.160Z,702.05
2023-01-09T01:08:32.161Z,702.08
2023-01-09T01:08:42.163Z,702.04
2023-01-09T01:08:52.166Z,701.95
2023-01-09T01:09:02.166Z,701.98
2023-01-09T01:09:12.165Z,701.94
2023-01-09T01:09:22.165Z,702.06
2023-01-09T01:09:32.166Z,702.30
2023-01-09T01:09:42.164Z,702.37
2023-01-09T01:09:52.167Z,702.33
2023-01-09T01:10:02.192Z,702.49
2023-01-09T01:10:12.172Z,702.54
2023-01-09T01:10:22.169Z,702.50
2023-01-09T01:10:32.173Z,702.49
2023-01-09T01:10:42.158Z,702.54
2023-01-09T01:10:52.173Z,702.62
2023-01-09T01:11:02.173Z,702.56
2023-01-09T01:11:12.173Z,702.57
2023-01-09T01:11:22.182Z,702.59
2023-01-09T01:11:32.175Z,702.65
2023-01-09T01:11:42.176Z,702.63
2023-01-09T01:11:52.175Z,702.63
2023-01-09T01:12:02.177Z,702.74
2023-01-09T01:12:12.181Z,702.74
2023-01-09T01:12:22.184Z,702.66
2023-01-09T01:12:32.186Z,702.65
2023-01-09T01:12:42.183Z,702.67
2023-01-09T01:12:52.198Z,702.61
2023-01-09T01:13:02.194Z,702.71
2023-01-09T01:13:12.183Z,702.67
2023-01-09T01:13:22.182Z,702.70
2023-01-09T01:13:32.185Z,702.66
2023-01-09T01:13:42.197Z,702.58
2023-01-09T01:13:52.193Z,702.51
2023-01-09T01:14:02.189Z,702.49
2023-01-09T01:14:12.190Z,702.55
2023-01-09T01:14:22.176Z,702.62
2023-01-09T01:14:32.206Z,702.59
2023-01-09T01:14:42.197Z,702.56
2023-01-09T01:14:52.200Z,702.59
2023-01-09T01:15:02.194Z,702.57
2023-01-09T01:15:12.197Z,702.62
2023-01-09T01:15:22.209Z,702.55
2023-01-09T01:15:32.197Z,702.52
2023-01-09T01:15:42.197Z,702.42
2023-01-09T01:15:52.201Z,702.56
2023-01-09T01:16:02.207Z,702.40
2023-01-09T01:16:12.206Z,702.33
2023-01-09T01:16:22.226Z,702.41
2023-01-09T01:16:32.242Z,702.48
2023-01-09T01:16:42.220Z,702.37
2023-01-09T01:16:52.255Z,702.50
2023-01-09T01:17:02.350Z,702.66
2023-01-09T01:17:12.253Z,702.65
2023-01-09T01:17:22.225Z,702.63
2023-01-09T01:17:32.210Z,702.66
2023-01-09T01:17:42.210Z,702.53
2023-01-09T01:17:52.216Z,702.54
2023-01-09T01:18:02.197Z,702.59
2023-01-09T01:18:12.197Z,702.58
2023-01-09T01:18:22.217Z,702.68
2023-01-09T01:18:32.221Z,702.68
2023-01-09T01:18:42.217Z,702.73
2023-01-09T01:18:52.225Z,702.68
2023-01-09T01:19:02.226Z,702.62
2023-01-09T01:19:12.221Z,702.63
2023-01-09T01:19:22.256Z,702.67
2023-01-09T01:19:32.210Z,702.63
2023-01-09T01:19:42.239Z,702.63
2023-01-09T01:19:52.215Z,702.70
2023-01-09T01:20:02.231Z,702.83
2023-01-09T01:20:12.230Z,702.90
2023-01-09T01:20:22.229Z,702.82
2023-01-09T01:20:32.232Z,702.79
2023-01-09T01:20:42.227Z,702.88
2023-01-09T01:20:52.227Z,702.89
2023-01-09T01:21:02.229Z,702.90
2023-01-09T01:21:12.231Z,702.90
2023-01-09T01:21:22.234Z,702.91
2023-01-09T01:21:32.232Z,702.91
2023-01-09T01:21:42.233Z,703.03
2023-01-09T01:21:52.232Z,703.05
2023-01-09T01:22:02.250Z,702.95
2023-01-09T01:22:12.233Z,702.97
2023-01-09T01:22:22.242Z,703.00
2023-01-09T01:22:32.238Z,702.90
2023-01-09T01:22:42.239Z,702.96
2023-01-09T01:22:52.257Z,702.99
2023-01-09T01:23:02.221Z,702.99
2023-01-09T01:23:12.258Z,702.89
2023-01-09T01:23:22.240Z,702.91
2023-01-09T01:23:32.239Z,702.92
2023-01-09T01:23:42.246Z,702.94
2023-01-09T01:23:52.240Z,702.92
2023-01-09T01:24:02.245Z,703.03
2023-01-09T01:24:12.242Z,702.93
2023-01-09T01:24:22.256Z,703.06
2023-01-09T01:24:32.243Z,703.19
2023-01-09T01:24:42.246Z,703.21
2023-01-09T01:24:52.259Z,703.12
2023-01-09T01:25:02.248Z,703.07
2023-01-09T01:25:12.247Z,703.02
2023-01-09T01:25:22.246Z,703.14
2023-01-09T01:25:32.248Z,703.22
2023-01-09T01:25:42.250Z,703.22
2023-01-09T01:25:52.258Z,703.17
2023-01-09T01:26:02.251Z,703.11
2023-01-09T01:26:12.255Z,703.19
2023-01-09T01:26:22.254Z,703.19
2023-01-09T01:26:32.260Z,703.29
2023-01-09T01:26:42.259Z,703.10
2023-01-09T01:26:52.269Z,703.17
2023-01-09T01:27:02.239Z,703.19
2023-01-09T01:27:12.260Z,703.15
2023-01-09T01:27:22.255Z,703.13
2023-01-09T01:27:32.261Z,703.21
2023-01-09T01:27:42.263Z,703.37
2023-01-09T01:27:52.261Z,703.34
2023-01-09T01:28:02.261Z,703.37
2023-01-09T01:28:12.263Z,703.28
2023-01-09T01:28:22.291Z,703.23
2023-01-09T01:28:32.248Z,703.21
2023-01-09T01:28:42.246Z,703.15
2023-01-09T01:28:52.277Z,703.20
2023-01-09T01:29:02.270Z,703.34
2023-01-09T01:29:12.270Z,703.28
2023-01-09T01:29:22.306Z,703.30
2023-01-09T01:29:32.274Z,703.28
2023-01-09T01:29:42.281Z,703.31
2023-01-09T01:29:52.276Z,703.29
2023-01-09T01:30:02.274Z,703.18
2023-01-09T01:30:12.274Z,703.14
2023-01-09T01:30:22.275Z,703.15
2023-01-09T01:30:32.276Z,703.18
2023-01-09T01:30:42.318Z,703.21
2023-01-09T01:30:52.339Z,703.14
2023-01-09T01:31:02.364Z,703.12
2023-01-09T01:31:12.309Z,703.24
2023-01-09T01:31:22.263Z,703.22
2023-01-09T01:31:32.284Z,703.20
2023-01-09T01:31:42.282Z,703.21
2023-01-09T01:31:52.288Z,703.26
2023-01-09T01:32:02.283Z,703.19
2023-01-09T01:32:12.282Z,703.17
2023-01-09T01:32:22.287Z,703.21
2023-01-09T01:32:32.292Z,703.26
2023-01-09T01:32:42.287Z,703.30
2023-01-09T01:32:52.288Z,703.46
2023-01-09T01:33:02.292Z,703.42
2023-01-09T01:33:12.292Z,703.49
2023-01-09T01:33:22.290Z,703.44
2023-01-09T01:33:32.294Z,703.42
2023-01-09T01:33:42.301Z,703.50
2023-01-09T01:33:52.293Z,703.50
2023-01-09T01:34:02.290Z,703.45
2023-01-09T01:34:12.295Z,703.41
2023-01-09T01:34:22.302Z,703.42
2023-01-09T01:34:32.305Z,703.49
2023-01-09T01:34:42.303Z,703.46
2023-01-09T01:34:52.304Z,703.35
2023-01-09T01:35:02.331Z,703.36
2023-01-09T01:35:12.299Z,703.47
2023-01-09T01:35:22.300Z,703.37
2023-01-09T01:35:32.301Z,703.40
2023-01-09T01:35:42.302Z,703.39
2023-01-09T01:35:52.302Z,703.48
2023-01-09T01:36:02.309Z,703.45
2023-01-09T01:36:12.314Z,703.43
2023-01-09T01:36:22.311Z,703.38
2023-01-09T01:36:32.307Z,703.43
2023-01-09T01:36:42.309Z,703.46
2023-01-09T01:36:52.312Z,703.37
2023-01-09T01:37:02.327Z,703.37
2023-01-09T01:37:12.309Z,703.51
2023-01-09T01:37:22.311Z,703.57
2023-01-09T01:37:32.311Z,703.58
2023-01-09T01:37:42.339Z,703.70
2023-01-09T01:37:52.322Z,703.65
2023-01-09T01:38:02.311Z,703.62
2023-01-09T01:38:12.317Z,703.72
2023-01-09T01:38:22.315Z,703.72
2023-01-09T01:38:32.321Z,703.86
2023-01-09T01:38:42.318Z,703.76
2023-01-09T01:38:52.329Z,703.79
2023-01-09T01:39:02.342Z,703.82
2023-01-09T01:39:12.323Z,703.97
2023-01-09T01:39:22.324Z,703.95
2023-01-09T01:39:32.327Z,703.90
2023-01-09T01:39:42.321Z,703.92
2023-01-09T01:39:52.335Z,703.91
2023-01-09T01:40:02.324Z,703.93
2023-01-09T01:40:12.321Z,704.02
2023-01-09T01:40:22.325Z,704.04
2023-01-09T01:40:32.328Z,704.06
2023-01-09T01:40:42.329Z,703.99
2023-01-09T01:40:52.336Z,703.80
2023-01-09T01:41:02.407Z,703.79
2023-01-09T01:41:12.334Z,703.69
2023-01-09T01:41:22.330Z,703.65
2023-01-09T01:41:32.333Z,703.52
2023-01-09T01:41:42.332Z,703.33
2023-01-09T01:41:52.340Z,703.28
2023-01-09T01:42:02.335Z,703.25
2023-01-09T01:42:12.339Z,703.27
2023-01-09T01:42:22.340Z,703.38
2023-01-09T01:42:32.341Z,703.39
2023-01-09T01:42:42.339Z,703.33
2023-01-09T01:42:52.341Z,703.28
2023-01-09T01:43:02.340Z,703.33
2023-01-09T01:43:12.344Z,703.15
2023-01-09T01:43:22.345Z,703.21
2023-01-09T01:43:32.343Z,703.12
2023-01-09T01:43:42.351Z,702.96
2023-01-09T01:43:52.347Z,703.25
2023-01-09T01:44:02.364Z,703.52
2023-01-09T01:44:12.350Z,703.71
2023-01-09T01:44:22.353Z,703.91
2023-01-09T01:44:32.355Z,704.17
2023-01-09T01:44:42.350Z,704.33
2023-01-09T01:44:52.358Z,704.58
2023-01-09T01:45:02.355Z,704.75
2023-01-09T01:45:12.357Z,704.77
2023-01-09T01:45:22.367Z,704.70
2023-01-09T01:45:32.356Z,704.63
2023-01-09T01:45:42.372Z,704.47
2023-01-09T01:45:52.383Z,704.46
2023-01-09T01:46:02.393Z,704.30
2023-01-09T01:46:12.373Z,704.29
2023-01-09T01:46:22.383Z,704.39
2023-01-09T01:46:32.340Z,704.29
2023-01-09T01:46:42.361Z,704.26
2023-01-09T01:46:52.368Z,704.21
2023-01-09T01:47:02.360Z,704.37
2023-01-09T01:47:12.362Z,704.38
2023-01-09T01:47:22.348Z,704.29
2023-01-09T01:47:32.375Z,704.38
2023-01-09T01:47:42.372Z,704.32
2023-01-09T01:47:52.367Z,704.34
2023-01-09T01:48:02.368Z,704.24
2023-01-09T01:48:12.372Z,704.31
2023-01-09T01:48:22.367Z,704.35
2023-01-09T01:48:32.375Z,704.54
2023-01-09T01:48:42.370Z,704.42
2023-01-09T01:48:52.379Z,704.24
2023-01-09T01:49:02.379Z,704.48
2023-01-09T01:49:12.370Z,704.55
2023-01-09T01:49:22.387Z,704.35
2023-01-09T01:49:32.375Z,704.43
2023-01-09T01:49:42.374Z,704.43
2023-01-09T01:49:52.385Z,704.44
2023-01-09T01:50:02.383Z,704.53
2023-01-09T01:50:12.382Z,704.64
2023-01-09T01:50:22.383Z,704.80
2023-01-09T01:50:32.379Z,704.77
2023-01-09T01:50:42.382Z,704.81
2023-01-09T01:50:52.382Z,704.70
2023-01-09T01:51:02.388Z,704.69
2023-01-09T01:51:12.410Z,704.70
2023-01-09T01:51:22.379Z,704.86
2023-01-09T01:51:32.384Z,704.83
2023-01-09T01:51:42.383Z,704.83
2023-01-09T01:51:52.395Z,704.87
2023-01-09T01:52:02.388Z,704.85
2023-01-09T01:52:12.392Z,704.87
2023-01-09T01:52:22.386Z,704.97
2023-01-09T01:52:32.392Z,704.96
2023-01-09T01:52:42.390Z,705.04
2023-01-09T01:52:52.393Z,705.00
2023-01-09T01:53:02.399Z,705.05
2023-01-09T01:53:12.411Z,704.99
2023-01-09T01:53:22.391Z,705.09
2023-01-09T01:53:32.392Z,705.01
2023-01-09T01:53:42.395Z,705.07
2023-01-09T01:53:52.393Z,705.10
2023-01-09T01:54:02.397Z,705.06
2023-01-09T01:54:12.401Z,705.07
2023-01-09T01:54:22.399Z,705.04
2023-01-09T01:54:32.401Z,704.91
2023-01-09T01:54:42.402Z,704.91
2023-01-09T01:54:52.402Z,704.84
2023-01-09T01:55:02.399Z,704.81
2023-01-09T01:55:12.397Z,704.86
2023-01-09T01:55:22.402Z,704.82
2023-01-09T01:55:32.404Z,704.87
2023-01-09T01:55:42.404Z,704.71
2023-01-09T01:55:52.413Z,704.78
2023-01-09T01:56:02.409Z,704.77
2023-01-09T01:56:12.408Z,704.61
2023-01-09T01:56:22.406Z,704.57
2023-01-09T01:56:32.416Z,704.56
2023-01-09T01:56:42.414Z,704.60
2023-01-09T01:56:52.409Z,704.62
2023-01-09T01:57:02.407Z,704.63
2023-01-09T01:57:12.410Z,704.85
2023-01-09T01:57:22.411Z,704.99
2023-01-09T01:57:32.412Z,704.83
2023-01-09T01:57:42.414Z,704.82
2023-01-09T01:57:52.420Z,704.95
2023-01-09T01:58:02.416Z,704.70
2023-01-09T01:58:12.417Z,704.72
2023-01-09T01:58:22.426Z,704.82
2023-01-09T01:58:32.420Z,704.79
2023-01-09T01:58:42.430Z,704.88
2023-01-09T01:58:52.456Z,704.96
2023-01-09T01:59:02.424Z,704.75
2023-01-09T01:59:12.426Z,704.70
2023-01-09T01:59:22.438Z,704.81
2023-01-09T01:59:32.428Z,704.69
2023-01-09T01:59:42.429Z,704.72
2023-01-09T01:59:52.438Z,704.88
2023-01-09T02:00:02.428Z,704.84
2023-01-09T02:00:12.429Z,704.88
2023-01-09T02:00:22.432Z,704.94
2023-01-09T02:00:32.434Z,704.95
2023-01-09T02:00:42.432Z,705.02
2023-01-09T02:00:52.457Z,705.03
2023-01-09T02:01:02.581Z,705.01
2023-01-09T02:01:12.577Z,704.93
2023-01-09T02:01:22.601Z,704.93
2023-01-09T02:01:32.485Z,704.84
2023-01-09T02:01:42.514Z,704.84
2023-01-09T02:01:52.588Z,705.09
2023-01-09T02:02:02.708Z,705.04
2023-01-09T02:02:12.554Z,704.91
2023-01-09T02:02:22.695Z,704.91
2023-01-09T02:02:32.479Z,704.85
2023-01-09T02:02:42.492Z,704.96
2023-01-09T02:02:52.549Z,705.01
2023-01-09T02:03:02.526Z,704.99
2023-01-09T02:03:12.449Z,704.94
2023-01-09T02:03:22.443Z,704.90
2023-01-09T02:03:32.473Z,704.95
2023-01-09T02:03:42.455Z,704.80
2023-01-09T02:03:52.457Z,704.74
2023-01-09T02:04:02.459Z,704.65
2023-01-09T02:04:12.451Z,704.55
2023-01-09T02:04:22.451Z,704.49
2023-01-09T02:04:32.452Z,704.48
2023-01-09T02:04:42.454Z,704.35